Time;durP1;ratioP1;P1;durP2;ratioP2;P2;SDS_P1;SDS_P2;PMS_P1;PMS_P2;Temp;Humidity;BMP_temperature;BMP_pressure;BME280_temperature;BME280_humidity;BME280_pressure;Samples;Min_cycle;Max_cycle;Signal;HPM_P1;HPM_P2
2022/02/28 00:00:43;;;;;;;10.43;1.90;;;24.30;81.30;;;;;;5054387;28;20207;-87
2022/02/28 00:03:10;;;;;;;11.97;2.60;;;24.10;81.00;;;;;;5054877;28;20848;-80
2022/02/28 00:05:38;;;;;;;15.57;2.63;;;23.90;82.00;;;;;;5065277;28;20219;-82
2022/02/28 00:08:05;;;;;;;11.47;2.60;;;23.70;82.90;;;;;;5053555;28;20194;-81
2022/02/28 00:10:33;;;;;;;12.20;2.57;;;23.60;84.80;;;;;;5052015;28;20619;-77
2022/02/28 00:13:00;;;;;;;11.07;3.63;;;23.30;85.90;;;;;;5047495;28;20188;-80
2022/02/28 00:15:27;;;;;;;10.43;3.10;;;22.80;87.30;;;;;;5047262;28;20198;-76
2022/02/28 00:17:55;;;;;;;13.97;2.53;;;22.40;87.80;;;;;;5049318;28;20206;-78
2022/02/28 00:20:23;;;;;;;15.00;3.27;;;22.30;90.60;;;;;;5050710;28;20307;-76
2022/02/28 00:22:51;;;;;;;13.73;3.03;;;22.40;91.60;;;;;;5049551;28;20295;-76
2022/02/28 00:25:19;;;;;;;11.53;2.80;;;22.30;91.00;;;;;;5048289;28;20211;-77
2022/02/28 00:27:47;;;;;;;14.60;3.10;;;22.40;90.70;;;;;;5048694;28;20673;-75
2022/02/28 00:30:14;;;;;;;14.90;3.20;;;22.50;91.20;;;;;;5051576;28;20187;-75
2022/02/28 00:32:41;;;;;;;17.73;2.80;;;22.60;91.40;;;;;;5054419;28;20241;-73
2022/02/28 00:35:09;;;;;;;10.80;2.90;;;22.40;91.60;;;;;;5053890;28;20623;-72
2022/02/28 00:37:38;;;;;;;12.83;3.03;;;22.30;91.10;;;;;;5050996;28;20195;-78
2022/02/28 00:40:06;;;;;;;15.37;3.10;;;22.10;90.30;;;;;;5054752;28;20175;-77
2022/02/28 00:42:34;;;;;;;14.17;3.10;;;22.30;91.10;;;;;;5054151;28;20183;-77
2022/02/28 00:45:01;;;;;;;11.80;2.83;;;22.30;91.50;;;;;;5052935;28;20211;-87
2022/02/28 00:47:29;;;;;;;12.77;2.83;;;22.30;91.70;;;;;;5053130;28;20223;-75
2022/02/28 00:49:56;;;;;;;14.83;3.17;;;22.30;92.20;;;;;;5052410;28;20188;-86
2022/02/28 00:52:23;;;;;;;11.40;2.70;;;22.30;91.80;;;;;;5054776;28;20187;-81
2022/02/28 00:54:51;;;;;;;9.93;2.50;;;22.30;91.40;;;;;;5054083;28;20226;-79
2022/02/28 00:57:18;;;;;;;12.90;2.93;;;22.20;91.00;;;;;;5056423;28;20168;-76
2022/02/28 00:59:46;;;;;;;11.10;2.50;;;22.30;92.20;;;;;;5053130;28;20180;-81
2022/02/28 01:02:13;;;;;;;13.50;2.73;;;22.50;91.20;;;;;;5050962;28;20192;-82
2022/02/28 01:04:41;;;;;;;10.83;2.80;;;22.80;91.50;;;;;;5054520;28;20299;-79
2022/02/28 01:07:08;;;;;;;9.83;1.83;;;23.00;90.30;;;;;;5052548;28;20187;-75
2022/02/28 01:09:36;;;;;;;9.47;1.97;;;22.80;89.00;;;;;;5054082;28;20183;-76
2022/02/28 01:12:06;;;;;;;10.37;2.47;;;22.80;88.70;;;;;;5054731;28;20187;-73
2022/02/28 01:14:34;;;;;;;11.00;2.23;;;23.00;87.20;;;;;;5054675;28;20215;-74
2022/02/28 01:17:02;;;;;;;12.00;2.43;;;23.00;86.70;;;;;;5052822;28;20195;-77
2022/02/28 01:19:29;;;;;;;10.77;2.23;;;23.00;87.00;;;;;;5055107;28;20180;-73
2022/02/28 01:21:57;;;;;;;12.83;2.10;;;23.20;87.00;;;;;;5054573;28;20542;-74
2022/02/28 01:24:24;;;;;;;9.57;2.40;;;23.40;86.80;;;;;;5051404;28;20182;-73
2022/02/28 01:26:51;;;;;;;7.87;2.30;;;23.80;85.00;;;;;;5052189;28;20291;-72
2022/02/28 01:29:19;;;;;;;10.37;2.57;;;23.80;84.50;;;;;;5049758;28;20172;-72
2022/02/28 01:31:46;;;;;;;12.10;2.30;;;23.60;84.80;;;;;;5054850;28;20633;-73
2022/02/28 01:34:14;;;;;;;9.50;2.70;;;23.50;86.90;;;;;;5054856;28;20207;-72
2022/02/28 01:36:41;;;;;;;9.37;2.30;;;23.60;86.60;;;;;;5058754;28;20209;-71
2022/02/28 01:39:09;;;;;;;9.57;2.20;;;23.60;86.30;;;;;;5058834;28;20199;-74
2022/02/28 01:41:36;;;;;;;9.50;1.90;;;23.40;84.50;;;;;;5053001;28;20219;-80
2022/02/28 01:44:07;;;;;;;7.90;2.10;;;23.20;84.40;;;;;;5052118;28;20520;-73
2022/02/28 01:46:35;;;;;;;10.07;2.40;;;23.00;83.80;;;;;;5052888;28;20228;-80
2022/02/28 01:49:03;;;;;;;8.50;2.20;;;22.90;85.10;;;;;;5053791;28;20266;-75
2022/02/28 01:51:30;;;;;;;8.70;1.93;;;22.80;85.40;;;;;;5053295;28;20226;-75
2022/02/28 01:53:58;;;;;;;10.10;2.33;;;22.80;85.30;;;;;;5048833;28;20577;-76
2022/02/28 01:56:28;;;;;;;7.50;2.20;;;22.80;86.20;;;;;;5051322;28;20200;-79
2022/02/28 01:58:55;;;;;;;10.60;2.53;;;22.80;86.70;;;;;;5052325;28;20241;-79
2022/02/28 02:01:23;;;;;;;5.97;2.00;;;22.90;87.30;;;;;;5051891;28;20188;-81
2022/02/28 02:03:50;;;;;;;14.90;2.80;;;23.00;86.70;;;;;;5052861;28;20202;-78
2022/02/28 02:06:20;;;;;;;10.67;2.40;;;22.90;86.30;;;;;;5052146;28;20275;-80
2022/02/28 02:08:49;;;;;;;13.37;2.77;;;23.10;86.10;;;;;;5051328;28;20194;-79
2022/02/28 02:11:16;;;;;;;9.87;2.73;;;23.30;86.40;;;;;;5051883;28;20184;-79
2022/02/28 02:13:46;;;;;;;12.77;2.60;;;23.40;86.10;;;;;;5051710;28;20277;-80
2022/02/28 02:16:13;;;;;;;10.87;2.70;;;23.50;85.20;;;;;;5050733;28;20180;-81
2022/02/28 02:18:41;;;;;;;10.00;2.67;;;23.70;84.50;;;;;;5052031;28;20262;-84
2022/02/28 02:21:08;;;;;;;10.83;2.83;;;23.80;84.20;;;;;;5049908;28;20176;-85
2022/02/28 02:23:35;;;;;;;9.03;2.33;;;23.80;83.50;;;;;;5050367;28;20183;-83
2022/02/28 02:26:03;;;;;;;7.67;1.97;;;23.70;83.20;;;;;;5048685;28;20184;-82
2022/02/28 02:28:30;;;;;;;11.23;2.77;;;23.70;82.10;;;;;;5050784;28;20554;-80
2022/02/28 02:30:59;;;;;;;9.90;2.20;;;23.90;83.00;;;;;;5051737;28;20206;-79
2022/02/28 02:33:27;;;;;;;9.60;2.37;;;24.20;82.60;;;;;;5048479;28;21205;-80
2022/02/28 02:35:57;;;;;;;9.97;2.43;;;24.30;82.00;;;;;;5051752;28;20192;-78
2022/02/28 02:38:26;;;;;;;15.67;3.07;;;24.30;80.90;;;;;;5051806;28;20196;-78
2022/02/28 02:40:54;;;;;;;7.50;2.77;;;24.40;81.50;;;;;;5051394;28;20702;-76
2022/02/28 02:43:22;;;;;;;8.13;2.70;;;24.80;80.10;;;;;;5051274;28;20180;-76
2022/02/28 02:45:49;;;;;;;14.43;2.90;;;24.80;80.70;;;;;;5065003;28;20244;-75
2022/02/28 02:48:23;;;;;;;9.93;2.40;;;25.10;79.70;;;;;;5052364;28;20191;-75
2022/02/28 02:50:52;;;;;;;9.97;2.80;;;25.20;78.60;;;;;;5051634;28;20199;-75
2022/02/28 02:53:20;;;;;;;8.87;2.13;;;25.30;78.20;;;;;;5051863;28;20191;-75
2022/02/28 02:55:47;;;;;;;7.60;1.90;;;25.50;75.90;;;;;;5052468;28;20273;-76
2022/02/28 02:58:14;;;;;;;7.73;1.93;;;25.70;75.10;;;;;;5052202;28;20191;-76
2022/02/28 03:00:47;;;;;;;8.90;2.13;;;25.70;74.90;;;;;;5052166;28;20184;-76
2022/02/28 03:03:21;;;;;;;8.07;2.47;;;25.80;74.70;;;;;;5052515;28;20172;-76
2022/02/28 03:05:49;;;;;;;5.63;2.00;;;25.90;75.10;;;;;;5052758;28;20203;-76
2022/02/28 03:08:17;;;;;;;5.83;2.03;;;25.80;74.80;;;;;;5057321;28;20175;-75
2022/02/28 03:10:45;;;;;;;8.27;2.07;;;26.10;74.60;;;;;;5066180;28;20202;-76
2022/02/28 03:13:12;;;;;;;5.20;1.77;;;26.00;74.20;;;;;;5052315;28;20270;-77
2022/02/28 03:15:40;;;;;;;7.97;2.10;;;25.80;74.00;;;;;;5050776;28;20195;-75
2022/02/28 03:18:07;;;;;;;9.80;2.10;;;25.50;74.10;;;;;;5050133;28;20180;-77
2022/02/28 03:20:34;;;;;;;10.77;2.50;;;25.60;74.50;;;;;;5049997;28;20259;-76
2022/02/28 03:23:02;;;;;;;10.53;2.77;;;26.00;74.60;;;;;;5051493;28;20212;-76
2022/02/28 03:25:29;;;;;;;7.67;2.33;;;26.50;71.60;;;;;;5049696;28;20176;-75
2022/02/28 03:27:56;;;;;;;8.93;2.10;;;26.30;72.10;;;;;;5051042;28;20187;-79
2022/02/28 03:30:24;;;;;;;9.20;2.33;;;26.50;72.40;;;;;;5050795;28;20179;-77
2022/02/28 03:32:51;;;;;;;9.87;2.10;;;26.30;70.90;;;;;;5046967;28;20195;-78
2022/02/28 03:35:19;;;;;;;10.10;2.20;;;26.20;71.00;;;;;;5049981;28;20227;-79
2022/02/28 03:37:46;;;;;;;8.83;2.60;;;26.30;71.50;;;;;;5049807;28;20642;-78
2022/02/28 03:40:15;;;;;;;7.90;1.77;;;26.30;71.60;;;;;;5050639;28;20183;-77
2022/02/28 03:42:42;;;;;;;8.67;2.53;;;26.00;72.00;;;;;;5050207;28;20637;-78
2022/02/28 03:45:10;;;;;;;10.97;2.20;;;26.00;71.40;;;;;;5050913;28;20188;-77
2022/02/28 03:47:37;;;;;;;8.93;2.20;;;26.40;72.60;;;;;;5050074;28;20227;-77
2022/02/28 03:50:05;;;;;;;13.23;2.40;;;26.10;71.30;;;;;;5051668;28;20639;-78
2022/02/28 03:52:34;;;;;;;13.87;2.40;;;26.30;73.10;;;;;;5051268;28;20183;-79
2022/02/28 03:55:01;;;;;;;9.93;2.63;;;26.60;72.60;;;;;;5050956;28;20704;-77
2022/02/28 03:57:29;;;;;;;10.63;2.27;;;26.70;70.60;;;;;;5051240;28;20239;-81
2022/02/28 03:59:57;;;;;;;8.67;1.97;;;26.70;71.60;;;;;;5051996;28;20183;-78
2022/02/28 04:02:24;;;;;;;13.33;2.73;;;26.80;70.60;;;;;;5048393;28;20183;-79
2022/02/28 04:04:53;;;;;;;10.63;2.13;;;26.70;71.00;;;;;;5050986;28;20275;-82
2022/02/28 04:07:21;;;;;;;14.67;2.40;;;26.80;71.70;;;;;;5038462;28;20263;-79
2022/02/28 04:09:48;;;;;;;9.97;2.30;;;26.80;70.30;;;;;;5054444;28;20616;-80
2022/02/28 04:12:16;;;;;;;12.77;2.83;;;26.50;70.40;;;;;;5053733;28;20171;-80
2022/02/28 04:14:43;;;;;;;17.27;2.87;;;26.50;71.70;;;;;;5055209;28;20211;-80
2022/02/28 04:17:11;;;;;;;9.43;2.70;;;26.50;70.80;;;;;;5054200;28;20182;-77
2022/02/28 04:19:38;;;;;;;10.03;2.93;;;26.70;70.30;;;;;;5055050;28;20211;-76
2022/02/28 04:22:06;;;;;;;14.80;5.07;;;26.70;71.60;;;;;;5055913;28;20233;-78
2022/02/28 04:24:33;;;;;;;15.57;3.43;;;26.80;71.50;;;;;;5055941;28;20234;-78
2022/02/28 04:27:00;;;;;;;14.13;2.37;;;26.50;71.30;;;;;;5055976;28;20529;-77
2022/02/28 04:29:28;;;;;;;9.63;2.57;;;26.30;71.90;;;;;;5056073;28;20179;-77
2022/02/28 04:31:55;;;;;;;13.77;2.33;;;26.20;72.60;;;;;;5053798;28;20587;-75
2022/02/28 04:34:22;;;;;;;15.73;2.53;;;26.20;72.90;;;;;;5055475;28;20215;-77
2022/02/28 04:36:50;;;;;;;17.40;2.67;;;26.50;72.50;;;;;;5055896;28;20188;-76
2022/02/28 04:39:17;;;;;;;10.83;4.60;;;26.70;72.90;;;;;;5056528;28;20263;-75
2022/02/28 04:41:44;;;;;;;16.10;5.23;;;26.40;73.10;;;;;;5058095;28;20610;-77
2022/02/28 04:44:12;;;;;;;12.80;3.60;;;26.40;73.30;;;;;;5063973;28;20180;-76
2022/02/28 04:46:39;;;;;;;10.17;2.70;;;26.30;73.70;;;;;;5054485;28;20212;-76
2022/02/28 04:49:07;;;;;;;11.10;1.80;;;25.90;74.80;;;;;;5054824;28;20176;-75
2022/02/28 04:51:34;;;;;;;10.83;2.30;;;25.80;75.20;;;;;;5054605;28;20246;-75
2022/02/28 04:54:01;;;;;;;9.47;2.90;;;25.50;77.00;;;;;;5054590;28;20267;-75
2022/02/28 04:56:42;;;;;;;13.37;2.73;;;25.00;81.00;;;;;;5055949;28;20529;-83
2022/02/28 04:59:09;;;;;;;12.87;2.60;;;24.60;82.60;;;;;;5055444;28;20206;-79
2022/02/28 05:01:37;;;;;;;16.97;2.80;;;24.20;86.40;;;;;;5054464;28;20557;-73
2022/02/28 05:04:04;;;;;;;13.80;2.63;;;24.10;86.20;;;;;;5054433;28;20252;-72
2022/02/28 05:06:34;;;;;;;13.17;2.87;;;23.80;88.20;;;;;;5053767;28;20179;-70
2022/02/28 05:09:02;;;;;;;14.13;3.03;;;23.70;89.20;;;;;;5053782;28;20351;-71
2022/02/28 05:11:29;;;;;;;13.83;3.13;;;23.40;89.90;;;;;;5055316;28;20199;-72
2022/02/28 05:13:59;;;;;;;13.17;2.83;;;22.90;90.50;;;;;;5052466;28;20685;-73
2022/02/28 05:16:27;;;;;;;15.17;2.90;;;22.90;91.40;;;;;;5053599;28;20650;-82
2022/02/28 05:18:54;;;;;;;11.13;2.60;;;22.80;90.90;;;;;;5054325;28;20191;-75
2022/02/28 05:21:21;;;;;;;14.13;2.87;;;22.70;91.10;;;;;;5054025;28;20793;-82
2022/02/28 05:23:49;;;;;;;12.50;2.80;;;22.50;90.60;;;;;;5053780;28;20184;-76
2022/02/28 05:26:16;;;;;;;10.43;2.50;;;22.30;89.90;;;;;;5050174;28;20642;-76
2022/02/28 05:28:44;;;;;;;19.37;3.37;;;22.10;90.90;;;;;;5052317;28;20237;-79
2022/02/28 05:31:11;;;;;;;16.53;3.23;;;22.00;91.50;;;;;;5053927;28;20543;-79
2022/02/28 05:33:39;;;;;;;11.90;2.67;;;22.00;91.40;;;;;;5054202;28;20514;-81
2022/02/28 05:36:06;;;;;;;15.43;2.53;;;21.90;91.30;;;;;;5054572;28;20203;-87
2022/02/28 05:38:34;;;;;;;15.50;2.87;;;22.00;91.60;;;;;;5054212;28;20167;-83
2022/02/28 05:41:01;;;;;;;12.97;2.73;;;22.00;91.90;;;;;;5053756;28;20180;-85
2022/02/28 05:43:29;;;;;;;12.70;3.20;;;22.10;91.90;;;;;;5053940;28;20247;-83
2022/02/28 05:45:56;;;;;;;15.07;2.80;;;22.20;92.30;;;;;;5054614;28;20638;-76
2022/02/28 05:48:24;;;;;;;12.80;2.67;;;22.20;92.30;;;;;;5053851;28;20608;-77
2022/02/28 05:50:51;;;;;;;14.00;2.70;;;22.30;92.20;;;;;;5052080;28;20195;-83
2022/02/28 05:53:18;;;;;;;12.97;2.30;;;22.30;91.50;;;;;;5052420;28;20560;-85
2022/02/28 05:55:46;;;;;;;11.20;2.20;;;22.20;91.60;;;;;;5053226;28;20852;-81
2022/02/28 05:58:14;;;;;;;19.90;3.10;;;22.30;90.90;;;;;;5054406;28;20187;-86
2022/02/28 06:00:41;;;;;;;13.40;2.50;;;22.40;91.20;;;;;;5055409;28;20215;-77
2022/02/28 06:03:08;;;;;;;16.67;3.17;;;22.40;90.50;;;;;;5053531;28;20180;-82
2022/02/28 06:05:36;;;;;;;15.50;2.57;;;22.60;91.10;;;;;;5054618;28;20187;-80
2022/02/28 06:08:03;;;;;;;13.60;2.80;;;22.50;90.20;;;;;;5053924;28;20172;-78
2022/02/28 06:10:31;;;;;;;13.33;2.43;;;22.60;90.20;;;;;;5056426;28;20599;-78
2022/02/28 06:12:58;;;;;;;14.30;3.00;;;22.50;89.90;;;;;;5056729;28;20176;-73
2022/02/28 06:15:25;;;;;;;11.83;2.33;;;22.50;90.10;;;;;;5061947;28;20207;-76
2022/02/28 06:17:53;;;;;;;13.00;2.30;;;22.60;90.40;;;;;;5059721;28;20253;-73
2022/02/28 06:20:20;;;;;;;15.07;3.13;;;22.70;89.60;;;;;;5047338;28;20306;-80
2022/02/28 06:22:48;;;;;;;13.83;3.00;;;22.60;89.10;;;;;;5051348;28;20246;-77
2022/02/28 06:25:15;;;;;;;15.13;3.10;;;22.80;89.70;;;;;;5051159;28;20176;-73
2022/02/28 06:27:42;;;;;;;10.53;2.57;;;22.70;89.30;;;;;;5052736;28;20218;-74
2022/02/28 06:30:10;;;;;;;10.83;2.60;;;22.80;88.50;;;;;;5047726;28;20233;-75
2022/02/28 06:32:38;;;;;;;13.67;2.60;;;22.80;88.80;;;;;;5051737;28;20276;-73
2022/02/28 06:35:06;;;;;;;14.93;2.90;;;22.80;88.40;;;;;;5052594;28;20219;-73
2022/02/28 06:37:34;;;;;;;11.60;2.60;;;22.80;88.20;;;;;;5053197;28;20180;-74
2022/02/28 06:40:01;;;;;;;11.10;2.50;;;22.80;88.20;;;;;;5052766;28;20184;-75
2022/02/28 06:42:29;;;;;;;13.37;2.77;;;22.80;87.80;;;;;;5052942;28;20168;-75
2022/02/28 06:44:56;;;;;;;8.40;2.00;;;22.80;87.00;;;;;;5050592;28;20199;-74
2022/02/28 06:47:23;;;;;;;11.07;2.83;;;22.80;87.50;;;;;;5054769;28;20223;-75
2022/02/28 06:49:51;;;;;;;10.47;2.17;;;22.80;87.80;;;;;;5067031;28;20532;-77
2022/02/28 06:52:18;;;;;;;14.07;2.07;;;22.80;87.70;;;;;;5068987;28;20195;-76
2022/02/28 06:54:46;;;;;;;14.43;2.73;;;22.80;86.90;;;;;;5069627;28;20235;-78
2022/02/28 06:57:13;;;;;;;8.93;1.83;;;22.80;86.30;;;;;;5067748;28;20187;-77
2022/02/28 06:59:41;;;;;;;9.47;2.10;;;22.80;86.10;;;;;;5069947;28;20176;-78
2022/02/28 07:02:08;;;;;;;9.03;2.20;;;22.80;86.50;;;;;;5070523;28;20270;-76
2022/02/28 07:04:35;;;;;;;10.43;2.13;;;22.80;87.20;;;;;;5063817;28;20211;-77
2022/02/28 07:07:03;;;;;;;7.93;1.97;;;22.80;87.30;;;;;;5053590;28;20236;-77
2022/02/28 07:09:30;;;;;;;9.17;1.63;;;22.80;88.00;;;;;;5052648;28;20184;-77
2022/02/28 07:11:58;;;;;;;5.63;1.73;;;22.80;88.50;;;;;;5053117;28;20187;-78
2022/02/28 07:14:25;;;;;;;11.13;2.20;;;22.70;88.30;;;;;;5053715;28;20261;-79
2022/02/28 07:16:52;;;;;;;8.87;1.87;;;22.60;88.30;;;;;;5052689;28;20194;-79
2022/02/28 07:19:20;;;;;;;7.10;1.53;;;22.60;88.30;;;;;;5052187;28;20190;-79
2022/02/28 07:21:47;;;;;;;6.57;1.33;;;22.50;88.10;;;;;;5052701;28;20180;-79
2022/02/28 07:24:18;;;;;;;15.97;1.93;;;22.50;88.90;;;;;;5054109;28;20210;-80
2022/02/28 07:26:45;;;;;;;9.40;1.80;;;22.50;89.60;;;;;;5051676;28;20180;-79
2022/02/28 07:29:13;;;;;;;5.33;1.60;;;22.50;89.20;;;;;;5050485;28;20219;-80
2022/02/28 07:31:41;;;;;;;7.63;1.43;;;22.60;89.60;;;;;;5052903;28;20172;-81
2022/02/28 07:34:13;;;;;;;10.13;2.10;;;22.60;89.70;;;;;;5053378;28;20198;-83
2022/02/28 07:36:41;;;;;;;11.10;1.97;;;22.60;89.80;;;;;;5054334;28;20290;-82
2022/02/28 07:39:08;;;;;;;10.80;1.97;;;22.70;89.90;;;;;;5054908;28;20168;-82
2022/02/28 07:41:37;;;;;;;9.40;1.70;;;22.60;90.10;;;;;;5059338;28;20251;-82
2022/02/28 07:44:06;;;;;;;6.63;1.70;;;22.60;89.90;;;;;;5056546;28;20186;-79
2022/02/28 07:46:33;;;;;;;8.47;2.17;;;22.50;89.30;;;;;;5068771;28;20211;-78
2022/02/28 07:49:00;;;;;;;7.07;2.00;;;22.50;89.30;;;;;;5074470;28;20188;-78
2022/02/28 07:51:28;;;;;;;5.87;1.73;;;22.40;89.20;;;;;;5057354;28;20261;-78
2022/02/28 07:53:55;;;;;;;8.00;2.37;;;22.50;89.60;;;;;;5055275;28;20212;-77
2022/02/28 07:56:23;;;;;;;10.27;2.00;;;22.50;89.80;;;;;;5055115;28;20176;-78
2022/02/28 07:58:51;;;;;;;8.50;2.53;;;22.50;89.70;;;;;;5056090;28;20295;-78
2022/02/28 08:01:18;;;;;;;6.23;2.20;;;22.50;89.80;;;;;;5054659;28;20182;-78
2022/02/28 08:03:45;;;;;;;5.80;1.77;;;22.60;89.90;;;;;;5055497;28;20541;-78
2022/02/28 08:06:13;;;;;;;13.03;2.70;;;22.60;89.40;;;;;;5054920;28;20187;-79
2022/02/28 08:08:41;;;;;;;7.87;2.37;;;22.60;89.50;;;;;;5054642;28;20180;-78
2022/02/28 08:11:08;;;;;;;8.20;2.20;;;22.50;89.70;;;;;;5054880;28;20210;-78
2022/02/28 08:13:35;;;;;;;7.77;1.67;;;22.50;89.70;;;;;;5055305;28;20160;-78
2022/02/28 08:16:03;;;;;;;6.00;2.17;;;22.50;89.70;;;;;;5055299;28;20183;-79
2022/02/28 08:18:30;;;;;;;4.97;1.90;;;22.40;90.00;;;;;;5052710;28;20532;-77
2022/02/28 08:20:58;;;;;;;5.03;1.80;;;22.30;89.70;;;;;;5053918;28;20288;-78
2022/02/28 08:23:25;;;;;;;6.37;2.13;;;22.30;90.20;;;;;;5053269;28;20180;-77
2022/02/28 08:25:53;;;;;;;8.37;1.80;;;22.30;90.30;;;;;;5055017;28;20262;-77
2022/02/28 08:28:20;;;;;;;4.80;1.70;;;22.20;90.40;;;;;;5055308;28;20203;-77
2022/02/28 08:30:47;;;;;;;6.03;1.73;;;22.10;90.10;;;;;;5054691;28;20207;-77
2022/02/28 08:33:15;;;;;;;7.27;1.83;;;22.10;90.50;;;;;;5054897;28;20180;-78
2022/02/28 08:35:42;;;;;;;7.00;2.03;;;22.00;90.50;;;;;;5054694;28;20187;-78
2022/02/28 08:38:11;;;;;;;6.20;1.80;;;21.90;90.10;;;;;;5054709;28;20176;-77
2022/02/28 08:40:39;;;;;;;12.80;5.97;;;21.90;90.00;;;;;;5052709;28;20233;-78
2022/02/28 08:43:06;;;;;;;8.80;3.57;;;21.80;90.60;;;;;;5052741;28;20272;-78
2022/02/28 08:45:35;;;;;;;7.40;3.20;;;21.80;90.80;;;;;;5054213;28;20168;-78
2022/02/28 08:48:03;;;;;;;7.27;2.83;;;21.80;91.10;;;;;;5050288;28;20231;-78
2022/02/28 08:50:30;;;;;;;8.53;2.53;;;21.80;90.30;;;;;;5053765;28;20574;-76
2022/02/28 08:52:58;;;;;;;11.77;3.43;;;21.80;90.00;;;;;;5054294;28;20537;-79
2022/02/28 08:55:26;;;;;;;10.23;3.90;;;21.80;90.50;;;;;;5053452;28;20349;-81
2022/02/28 08:57:53;;;;;;;13.53;3.50;;;21.80;91.40;;;;;;5054778;28;20263;-84
2022/02/28 09:00:22;;;;;;;11.53;2.77;;;21.70;92.10;;;;;;5055171;28;20180;-78
2022/02/28 09:02:50;;;;;;;15.93;7.23;;;21.50;92.80;;;;;;5052408;28;20191;-81
2022/02/28 09:05:17;;;;;;;12.77;6.13;;;21.40;93.30;;;;;;5053946;28;20187;-79
2022/02/28 09:07:44;;;;;;;13.63;4.37;;;21.30;93.60;;;;;;5053707;28;20164;-80
2022/02/28 09:10:12;;;;;;;12.53;3.10;;;21.30;93.80;;;;;;5049786;28;20266;-81
2022/02/28 09:12:39;;;;;;;11.57;3.53;;;21.30;94.10;;;;;;5054226;28;20184;-78
2022/02/28 09:15:08;;;;;;;13.57;3.37;;;21.30;94.20;;;;;;5054854;28;20218;-78
2022/02/28 09:17:35;;;;;;;11.57;2.90;;;21.30;94.50;;;;;;5055924;28;20174;-74
2022/02/28 09:20:05;;;;;;;13.30;3.13;;;21.30;94.40;;;;;;5057426;28;20605;-76
2022/02/28 09:22:32;;;;;;;12.83;2.80;;;21.20;94.40;;;;;;5068004;28;20180;-76
2022/02/28 09:25:00;;;;;;;9.53;2.73;;;21.20;94.50;;;;;;5054504;28;20646;-75
2022/02/28 09:27:28;;;;;;;11.00;2.50;;;21.20;94.60;;;;;;5051820;28;20192;-81
2022/02/28 09:29:55;;;;;;;15.60;3.50;;;21.20;94.80;;;;;;5068587;28;20198;-74
2022/02/28 09:32:22;;;;;;;14.43;2.60;;;21.30;94.90;;;;;;5053231;28;20184;-75
2022/02/28 09:34:50;;;;;;;17.70;2.80;;;21.30;95.10;;;;;;5053527;28;20669;-72
2022/02/28 09:37:17;;;;;;;12.90;2.70;;;21.30;94.90;;;;;;5053313;28;20630;-75
2022/02/28 09:39:44;;;;;;;12.50;2.70;;;21.30;94.90;;;;;;5053370;28;20968;-73
2022/02/28 09:42:13;;;;;;;9.77;2.67;;;21.10;94.80;;;;;;5053382;28;20176;-73
2022/02/28 09:44:40;;;;;;;15.23;3.83;;;21.10;95.00;;;;;;5048006;28;20201;-73
2022/02/28 09:47:08;;;;;;;14.00;3.20;;;21.10;95.20;;;;;;5053425;28;20573;-72
2022/02/28 09:49:36;;;;;;;14.20;2.63;;;21.00;95.20;;;;;;5052292;28;20192;-72
2022/02/28 09:52:05;;;;;;;13.77;3.97;;;21.00;95.20;;;;;;5050090;28;20187;-72
2022/02/28 09:54:32;;;;;;;20.17;13.93;;;21.10;95.40;;;;;;5052291;28;20222;-73
2022/02/28 09:57:01;;;;;;;10.10;5.10;;;21.10;95.40;;;;;;5052724;28;20630;-72
2022/02/28 09:59:28;;;;;;;13.77;3.60;;;21.00;95.50;;;;;;5053553;28;20176;-75
2022/02/28 10:01:56;;;;;;;14.37;2.90;;;21.10;95.50;;;;;;5052983;28;20275;-77
2022/02/28 10:04:23;;;;;;;11.77;3.03;;;21.00;95.40;;;;;;5052643;28;20175;-72
2022/02/28 10:06:50;;;;;;;11.40;3.27;;;21.00;95.40;;;;;;5051265;28;20214;-72
2022/02/28 10:09:20;;;;;;;10.63;3.00;;;21.00;95.50;;;;;;5053130;28;20180;-72
2022/02/28 10:11:53;;;;;;;11.60;3.83;;;21.10;95.40;;;;;;5053310;28;20176;-72
2022/02/28 10:14:21;;;;;;;11.87;3.07;;;21.00;95.50;;;;;;5053891;28;20223;-71
2022/02/28 10:16:58;;;;;;;9.07;3.33;;;21.00;95.40;;;;;;5053906;28;20184;-74
2022/02/28 10:19:32;;;;;;;9.23;2.97;;;21.00;95.40;;;;;;5050524;28;20264;-71
2022/02/28 10:22:04;;;;;;;9.90;3.20;;;21.00;95.50;;;;;;5053336;28;20176;-74
2022/02/28 10:24:37;;;;;;;10.93;3.33;;;20.90;95.50;;;;;;5052965;28;20179;-72
2022/02/28 10:27:06;;;;;;;15.97;3.60;;;20.90;95.60;;;;;;5047370;28;20610;-73
2022/02/28 10:29:39;;;;;;;10.13;3.10;;;21.00;95.70;;;;;;5051805;28;20168;-76
2022/02/28 10:32:11;;;;;;;8.50;3.67;;;20.90;95.60;;;;;;5051529;28;20211;-73
2022/02/28 10:37:25;;;;;;;12.43;3.87;;;20.90;95.70;;;;;;5051000;28;20179;-73
2022/02/28 10:40:00;;;;;;;10.63;3.90;;;20.90;95.80;;;;;;5052029;28;20187;-73
2022/02/28 10:42:51;;;;;;;7.33;3.43;;;21.00;95.80;;;;;;5052820;28;20700;-73
2022/02/28 10:45:26;;;;;;;14.77;3.83;;;20.90;95.80;;;;;;5051671;28;20581;-74
2022/02/28 10:47:54;;;;;;;10.70;3.77;;;20.90;95.80;;;;;;5051613;28;20262;-77
2022/02/28 10:50:38;;;;;;;11.73;3.20;;;21.00;95.90;;;;;;5052819;28;20184;-75
2022/02/28 10:53:11;;;;;;;10.17;3.47;;;20.90;95.80;;;;;;5058391;28;20199;-77
2022/02/28 10:55:39;;;;;;;9.27;3.03;;;20.90;95.80;;;;;;5061625;28;20212;-73
2022/02/28 10:58:11;;;;;;;10.03;3.70;;;20.90;95.80;;;;;;5052832;28;20172;-73
2022/02/28 11:00:51;;;;;;;11.47;4.13;;;20.90;95.80;;;;;;5052084;28;20715;-72
2022/02/28 11:03:19;;;;;;;10.97;3.87;;;20.80;95.80;;;;;;5047912;28;20183;-73
2022/02/28 11:05:58;;;;;;;13.87;4.10;;;20.90;95.90;;;;;;5050801;28;20176;-77
2022/02/28 11:08:27;;;;;;;11.30;3.30;;;20.90;95.90;;;;;;5047833;28;20167;-72
2022/02/28 11:11:07;;;;;;;10.17;3.30;;;20.90;96.00;;;;;;5050797;28;20184;-73
2022/02/28 11:13:35;;;;;;;8.83;3.73;;;20.80;95.90;;;;;;5049624;28;20561;-75
2022/02/28 11:16:03;;;;;;;8.57;3.30;;;20.80;95.90;;;;;;5046908;28;20195;-76
2022/02/28 11:18:31;;;;;;;11.93;3.57;;;20.80;95.90;;;;;;5051375;28;20512;-76
2022/02/28 11:20:58;;;;;;;9.93;3.87;;;20.90;96.00;;;;;;5051094;28;20723;-76
2022/02/28 11:23:25;;;;;;;12.53;4.60;;;20.90;96.00;;;;;;5052059;28;20174;-71
2022/02/28 11:25:53;;;;;;;16.07;4.60;;;20.90;96.00;;;;;;5051345;28;20194;-74
2022/02/28 11:28:20;;;;;;;13.40;3.87;;;21.00;96.00;;;;;;5049510;28;20215;-75
2022/02/28 11:30:48;;;;;;;9.43;3.80;;;21.00;96.20;;;;;;5051216;28;20178;-75
2022/02/28 11:33:16;;;;;;;12.70;4.20;;;21.00;96.20;;;;;;5049934;28;20541;-74
2022/02/28 11:35:53;;;;;;;15.77;4.50;;;21.00;96.30;;;;;;5051259;28;20219;-76
2022/02/28 11:38:20;;;;;;;11.17;3.43;;;21.00;96.40;;;;;;5051881;28;20182;-73
2022/02/28 11:40:52;;;;;;;9.27;2.80;;;20.90;96.30;;;;;;5050698;28;20547;-73
2022/02/28 11:43:25;;;;;;;7.07;2.60;;;20.90;96.30;;;;;;5050990;28;20630;-75
2022/02/28 11:45:56;;;;;;;11.57;2.87;;;20.90;96.30;;;;;;5049366;28;20654;-75
2022/02/28 11:48:35;;;;;;;8.20;2.80;;;20.90;96.20;;;;;;5048091;28;20553;-78
2022/02/28 11:51:02;;;;;;;12.87;3.03;;;20.90;96.20;;;;;;5046482;28;20188;-76
2022/02/28 11:54:01;;;;;;;7.37;2.73;;;20.80;96.10;;;;;;5051124;28;20187;-76
2022/02/28 11:56:31;;;;;;;13.43;2.80;;;20.80;96.20;;;;;;5051319;28;20285;-73
2022/02/28 11:59:03;;;;;;;10.33;2.43;;;20.80;96.20;;;;;;5051938;28;20184;-73
2022/02/28 12:01:58;;;;;;;6.63;2.97;;;20.80;96.20;;;;;;5051370;28;20183;-74
2022/02/28 12:04:45;;;;;;;7.77;2.60;;;20.80;96.00;;;;;;5050059;28;20218;-73
2022/02/28 12:07:29;;;;;;;11.70;2.60;;;20.80;96.00;;;;;;5045938;28;20650;-74
2022/02/28 12:10:14;;;;;;;10.03;2.50;;;20.80;96.00;;;;;;5050601;28;20192;-72
2022/02/28 12:13:00;;;;;;;5.50;2.63;;;20.80;96.00;;;;;;5050129;28;20290;-74
2022/02/28 12:15:29;;;;;;;7.70;2.80;;;20.70;96.10;;;;;;5051230;28;20207;-77
2022/02/28 12:17:59;;;;;;;5.73;2.73;;;20.80;96.20;;;;;;5051545;28;20169;-73
2022/02/28 12:20:29;;;;;;;6.03;2.87;;;20.80;96.10;;;;;;5052032;28;20203;-73
2022/02/28 12:23:08;;;;;;;6.90;2.77;;;20.80;96.10;;;;;;5052480;28;20176;-74
2022/02/28 12:25:39;;;;;;;9.70;3.30;;;20.80;96.20;;;;;;5052791;28;20194;-74
2022/02/28 12:28:23;;;;;;;9.53;3.53;;;20.80;96.20;;;;;;5048873;28;20183;-73
2022/02/28 12:31:20;;;;;;;10.33;3.60;;;20.80;96.30;;;;;;5067693;28;20267;-73
2022/02/28 12:33:48;;;;;;;14.73;4.43;;;20.80;96.30;;;;;;5054817;28;20776;-70
2022/02/28 12:36:31;;;;;;;11.60;3.77;;;20.80;96.40;;;;;;5054785;28;20263;-71
2022/02/28 12:39:08;;;;;;;8.33;3.17;;;20.80;96.40;;;;;;5048097;28;20248;-74
2022/02/28 12:41:42;;;;;;;12.67;3.20;;;20.80;96.30;;;;;;5054808;28;20230;-71
2022/02/28 12:44:12;;;;;;;13.70;3.20;;;20.80;96.10;;;;;;5055051;28;20202;-71
2022/02/28 12:46:53;;;;;;;7.40;2.80;;;20.80;96.00;;;;;;5056007;28;20254;-73
2022/02/28 12:49:24;;;;;;;8.03;3.70;;;20.80;96.00;;;;;;5055052;28;20226;-73
2022/02/28 12:51:52;;;;;;;9.27;3.40;;;20.80;96.10;;;;;;5054749;28;20191;-70